Time;durP1;ratioP1;P1;durP2;ratioP2;P2;SDS_P1;SDS_P2;PMS_P1;PMS_P2;Temp;Humidity;BMP_temperature;BMP_pressure;BME280_temperature;BME280_humidity;BME280_pressure;Samples;Min_cycle;Max_cycle;Signal;HPM_P1;HPM_P2
2022/10/08 00:00:55;;;;;;;13.67;4.20;;;;;;;;;;5033175;28;20632;-66
2022/10/08 00:03:22;;;;;;;15.03;4.57;;;;;;;;;;5033305;28;20262;-66
2022/10/08 00:06:18;;;;;;;14.03;5.07;;;;;;;;;;5033396;28;20182;-66
2022/10/08 00:08:48;;;;;;;13.07;4.30;;;;;;;;;;4998929;28;20649;-65
2022/10/08 00:11:15;;;;;;;14.73;4.40;;;;;;;;;;5015369;28;20540;-66
2022/10/08 00:13:41;;;;;;;12.23;4.60;;;;;;;;;;5032965;28;20245;-66
2022/10/08 00:16:15;;;;;;;18.57;4.97;;;;;;;;;;5015276;28;20229;-66
2022/10/08 00:18:43;;;;;;;19.13;4.13;;;;;;;;;;5032824;28;20625;-66
2022/10/08 00:21:13;;;;;;;11.80;3.93;;;;;;;;;;5015231;28;20183;-66
2022/10/08 00:23:40;;;;;;;11.03;4.33;;;;;;;;;;5032872;28;20199;-66
2022/10/08 00:26:06;;;;;;;13.00;4.10;;;;;;;;;;5034279;28;20250;-66
2022/10/08 00:28:36;;;;;;;12.30;3.77;;;;;;;;;;5036887;28;20210;-66
2022/10/08 00:31:06;;;;;;;13.33;4.53;;;;;;;;;;5037571;28;20183;-66
2022/10/08 00:33:34;;;;;;;11.30;4.57;;;;;;;;;;5036505;28;20207;-66
2022/10/08 00:36:01;;;;;;;17.03;5.13;;;;;;;;;;5036658;28;20176;-66
2022/10/08 00:38:27;;;;;;;13.83;4.57;;;;;;;;;;5036452;28;20203;-66
2022/10/08 00:40:53;;;;;;;12.60;4.13;;;;;;;;;;5036624;28;20552;-66
2022/10/08 00:43:36;;;;;;;14.33;4.43;;;;;;;;;;5036471;28;20218;-66
2022/10/08 00:46:02;;;;;;;15.17;4.90;;;;;;;;;;5036668;28;20168;-66
2022/10/08 00:48:28;;;;;;;10.20;4.43;;;;;;;;;;5036461;28;20190;-66
2022/10/08 00:50:54;;;;;;;13.20;4.70;;;;;;;;;;5018672;28;20190;-66
2022/10/08 00:53:20;;;;;;;13.57;4.90;;;;;;;;;;5036596;28;20203;-66
2022/10/08 00:55:46;;;;;;;13.77;3.93;;;;;;;;;;5036416;28;20179;-66
2022/10/08 00:58:19;;;;;;;10.70;3.73;;;;;;;;;;5036384;28;20298;-66
2022/10/08 01:00:46;;;;;;;19.00;4.37;;;;;;;;;;5018476;28;20655;-66
2022/10/08 01:03:12;;;;;;;12.03;4.07;;;;;;;;;;5018559;28;20203;-66
2022/10/08 01:05:38;;;;;;;11.77;4.00;;;;;;;;;;5036176;28;20203;-66
2022/10/08 01:08:04;;;;;;;15.90;3.87;;;;;;;;;;5018413;28;20183;-66
2022/10/08 01:10:35;;;;;;;12.90;4.60;;;;;;;;;;5036091;28;20503;-66
2022/10/08 01:13:19;;;;;;;10.27;4.13;;;;;;;;;;5036126;28;20677;-66
2022/10/08 01:15:52;;;;;;;11.50;3.73;;;;;;;;;;5036425;28;20528;-66
2022/10/08 01:18:21;;;;;;;12.63;3.73;;;;;;;;;;5035903;28;20284;-66
2022/10/08 01:21:08;;;;;;;12.43;3.70;;;;;;;;;;5018013;28;20225;-66
2022/10/08 01:23:37;;;;;;;16.97;3.73;;;;;;;;;;5017996;28;20294;-66
2022/10/08 01:26:24;;;;;;;12.23;4.20;;;;;;;;;;5035662;28;20175;-66
2022/10/08 01:28:55;;;;;;;12.63;3.47;;;;;;;;;;5017938;28;20171;-66
2022/10/08 01:31:26;;;;;;;17.87;4.10;;;;;;;;;;5017814;28;20207;-66
2022/10/08 01:34:03;;;;;;;16.17;3.93;;;;;;;;;;5017703;28;20754;-68
2022/10/08 01:36:35;;;;;;;11.67;4.27;;;;;;;;;;5035380;28;20206;-66
2022/10/08 01:39:04;;;;;;;9.93;3.40;;;;;;;;;;5034574;28;20539;-66
2022/10/08 01:41:32;;;;;;;12.53;3.70;;;;;;;;;;5035446;28;20183;-66
2022/10/08 01:44:03;;;;;;;13.23;3.80;;;;;;;;;;5035230;28;20195;-66
2022/10/08 01:46:30;;;;;;;10.53;4.33;;;;;;;;;;5035182;28;20179;-66
2022/10/08 01:48:59;;;;;;;11.27;4.10;;;;;;;;;;5035539;28;20566;-66
2022/10/08 01:51:46;;;;;;;14.23;3.67;;;;;;;;;;5017428;28;20267;-66
2022/10/08 01:54:14;;;;;;;18.67;4.10;;;;;;;;;;5035172;28;20678;-66
2022/10/08 01:56:40;;;;;;;10.70;3.40;;;;;;;;;;5035140;28;20603;-64
2022/10/08 01:59:13;;;;;;;15.00;4.30;;;;;;;;;;5035027;28;20306;-66
2022/10/08 02:01:43;;;;;;;7.73;3.30;;;;;;;;;;5017177;28;20706;-66
2022/10/08 02:06:58;;;;;;;12.67;3.37;;;;;;;;;;5035015;28;20627;-66
2022/10/08 02:09:27;;;;;;;13.23;4.47;;;;;;;;;;5035098;28;20175;-66
2022/10/08 02:11:53;;;;;;;10.30;3.80;;;;;;;;;;5034885;28;20636;-64
2022/10/08 02:14:23;;;;;;;12.03;3.53;;;;;;;;;;5034797;28;20257;-64
2022/10/08 02:16:52;;;;;;;8.83;3.60;;;;;;;;;;5016792;28;20567;-64
2022/10/08 02:19:42;;;;;;;9.20;3.13;;;;;;;;;;5034502;28;20257;-66
2022/10/08 02:22:08;;;;;;;10.70;3.60;;;;;;;;;;5022079;28;20187;-64
2022/10/08 02:24:40;;;;;;;14.57;3.57;;;;;;;;;;5016637;28;20718;-64
2022/10/08 02:27:08;;;;;;;10.60;3.30;;;;;;;;;;5034333;28;20640;-64
2022/10/08 02:29:38;;;;;;;11.00;3.47;;;;;;;;;;5034345;28;20183;-66
2022/10/08 02:32:04;;;;;;;13.00;3.33;;;;;;;;;;5034296;28;20616;-64
2022/10/08 02:34:36;;;;;;;10.80;3.73;;;;;;;;;;5034016;28;20273;-64
2022/10/08 02:37:02;;;;;;;15.70;3.60;;;;;;;;;;5034485;28;20171;-66
2022/10/08 02:39:29;;;;;;;9.83;3.60;;;;;;;;;;5034269;28;20203;-66
2022/10/08 02:41:57;;;;;;;10.00;3.20;;;;;;;;;;5034355;28;20179;-64
2022/10/08 02:44:45;;;;;;;11.80;3.17;;;;;;;;;;5016344;28;20209;-64
2022/10/08 02:47:14;;;;;;;12.73;3.90;;;;;;;;;;5034286;28;20183;-66
2022/10/08 02:49:42;;;;;;;11.27;3.00;;;;;;;;;;5016914;28;20601;-66
2022/10/08 02:52:09;;;;;;;11.77;3.60;;;;;;;;;;5034213;28;20175;-64
2022/10/08 02:54:38;;;;;;;10.80;3.67;;;;;;;;;;5034094;28;20202;-66
2022/10/08 02:57:14;;;;;;;14.87;3.87;;;;;;;;;;5016385;28;20695;-65
2022/10/08 02:59:41;;;;;;;15.77;4.27;;;;;;;;;;5016111;28;20552;-64
2022/10/08 03:02:08;;;;;;;9.30;3.80;;;;;;;;;;5016466;28;20548;-64
2022/10/08 03:04:46;;;;;;;11.40;4.33;;;;;;;;;;5034060;28;20203;-66
2022/10/08 03:07:14;;;;;;;11.73;3.70;;;;;;;;;;5034313;28;20183;-64
2022/10/08 03:09:42;;;;;;;14.60;4.67;;;;;;;;;;5015846;28;20278;-64
2022/10/08 03:12:08;;;;;;;16.90;4.10;;;;;;;;;;5033737;28;20183;-64
2022/10/08 03:14:38;;;;;;;10.40;3.80;;;;;;;;;;5033793;28;20203;-64
2022/10/08 03:17:05;;;;;;;12.40;4.47;;;;;;;;;;5034159;28;20194;-64
2022/10/08 03:19:33;;;;;;;10.50;4.00;;;;;;;;;;5033851;28;20213;-65
2022/10/08 03:21:59;;;;;;;11.83;4.20;;;;;;;;;;5033621;28;20258;-65
2022/10/08 03:24:25;;;;;;;17.57;5.03;;;;;;;;;;5033592;28;20634;-66
2022/10/08 03:26:51;;;;;;;15.43;5.00;;;;;;;;;;5033570;28;20262;-65
2022/10/08 03:29:17;;;;;;;15.13;5.13;;;;;;;;;;5033548;28;20187;-63
2022/10/08 03:31:43;;;;;;;15.13;6.00;;;;;;;;;;5015723;28;20178;-65
2022/10/08 03:34:09;;;;;;;15.03;5.13;;;;;;;;;;5033127;28;20210;-65
2022/10/08 03:36:35;;;;;;;15.60;5.37;;;;;;;;;;5033312;28;20209;-65
2022/10/08 03:39:01;;;;;;;15.37;5.70;;;;;;;;;;5033425;28;20199;-65
2022/10/08 03:41:30;;;;;;;17.63;5.50;;;;;;;;;;5033202;28;20183;-65
2022/10/08 03:43:56;;;;;;;15.37;5.83;;;;;;;;;;5033618;28;20214;-65
2022/10/08 03:46:22;;;;;;;13.73;5.57;;;;;;;;;;5033230;28;20246;-65
2022/10/08 03:48:49;;;;;;;17.30;6.37;;;;;;;;;;5033763;28;20187;-65
2022/10/08 03:51:15;;;;;;;16.53;6.40;;;;;;;;;;5033239;28;20179;-66
2022/10/08 03:53:41;;;;;;;12.90;6.10;;;;;;;;;;5033129;28;20260;-65
2022/10/08 03:56:11;;;;;;;16.10;6.77;;;;;;;;;;5033155;28;20250;-66
2022/10/08 03:58:37;;;;;;;15.40;5.63;;;;;;;;;;5033230;28;20207;-64
2022/10/08 04:01:04;;;;;;;16.90;5.70;;;;;;;;;;5016723;28;20190;-65
2022/10/08 04:03:31;;;;;;;14.80;5.50;;;;;;;;;;5037237;28;20591;-65
2022/10/08 04:05:57;;;;;;;13.60;5.70;;;;;;;;;;5037313;28;20187;-65
2022/10/08 04:08:23;;;;;;;15.00;6.03;;;;;;;;;;5037016;28;20183;-65
2022/10/08 04:10:49;;;;;;;17.97;5.80;;;;;;;;;;5037088;28;20562;-65
2022/10/08 04:13:15;;;;;;;12.47;6.13;;;;;;;;;;5037539;28;20205;-66
2022/10/08 04:15:42;;;;;;;12.70;5.60;;;;;;;;;;5019180;28;20194;-66
2022/10/08 04:18:11;;;;;;;15.27;6.20;;;;;;;;;;5019048;28;20557;-65
2022/10/08 04:20:38;;;;;;;19.27;6.67;;;;;;;;;;5037078;28;20213;-65
2022/10/08 04:23:04;;;;;;;12.93;6.73;;;;;;;;;;5018905;28;20183;-65
2022/10/08 04:25:30;;;;;;;15.77;6.27;;;;;;;;;;5036732;28;20232;-65
2022/10/08 04:27:56;;;;;;;18.20;5.80;;;;;;;;;;5036586;28;20243;-65
2022/10/08 04:30:23;;;;;;;19.23;6.23;;;;;;;;;;5019564;28;20232;-65
2022/10/08 04:32:49;;;;;;;17.30;6.80;;;;;;;;;;5018636;28;20195;-65
2022/10/08 04:35:15;;;;;;;15.90;6.27;;;;;;;;;;5042649;23;20238;-68
2022/10/08 04:37:41;;;;;;;17.13;6.23;;;;;;;;;;5036550;28;20175;-69
2022/10/08 04:40:07;;;;;;;13.00;6.07;;;;;;;;;;5036782;28;20183;-69
2022/10/08 04:42:33;;;;;;;18.50;6.37;;;;;;;;;;5018698;28;20183;-68
2022/10/08 04:44:59;;;;;;;13.90;6.50;;;;;;;;;;5036736;28;20195;-68
2022/10/08 04:47:25;;;;;;;17.90;6.57;;;;;;;;;;5036819;28;20686;-69
2022/10/08 04:49:51;;;;;;;16.90;5.80;;;;;;;;;;5036378;28;20225;-68
2022/10/08 04:52:19;;;;;;;16.87;6.03;;;;;;;;;;5018503;28;20183;-68
2022/10/08 04:54:45;;;;;;;18.03;5.97;;;;;;;;;;5036756;28;20558;-69
2022/10/08 04:57:11;;;;;;;19.07;5.90;;;;;;;;;;5036396;28;20259;-68
2022/10/08 04:59:37;;;;;;;13.73;5.53;;;;;;;;;;5036348;28;20202;-69
2022/10/08 05:02:03;;;;;;;16.80;5.57;;;;;;;;;;5018538;28;20179;-68
2022/10/08 05:04:28;;;;;;;21.80;5.77;;;;;;;;;;5018416;28;20199;-69
2022/10/08 05:06:54;;;;;;;12.70;5.27;;;;;;;;;;5018514;28;20321;-68
2022/10/08 05:09:20;;;;;;;15.87;5.90;;;;;;;;;;5036555;28;20179;-68
2022/10/08 05:11:46;;;;;;;17.23;6.30;;;;;;;;;;5035300;28;20674;-68
2022/10/08 05:14:12;;;;;;;16.43;5.63;;;;;;;;;;5017488;28;20252;-68
2022/10/08 05:16:38;;;;;;;16.60;5.20;;;;;;;;;;5018049;28;20187;-68
2022/10/08 05:19:04;;;;;;;16.80;5.60;;;;;;;;;;5035792;28;20207;-68
2022/10/08 05:21:31;;;;;;;15.33;6.07;;;;;;;;;;5035793;28;20644;-69
2022/10/08 05:24:01;;;;;;;19.53;5.37;;;;;;;;;;5017997;28;20195;-69
2022/10/08 05:26:29;;;;;;;11.30;5.27;;;;;;;;;;5036676;28;20166;-69
2022/10/08 05:28:56;;;;;;;17.20;6.43;;;;;;;;;;5036734;28;20183;-68
2022/10/08 05:31:22;;;;;;;13.33;5.33;;;;;;;;;;5036688;28;20663;-68
2022/10/08 05:33:48;;;;;;;11.40;4.40;;;;;;;;;;5036225;28;20202;-68
2022/10/08 05:36:16;;;;;;;16.47;5.27;;;;;;;;;;5035831;28;20171;-68
2022/10/08 05:38:45;;;;;;;14.90;5.77;;;;;;;;;;5035686;28;20203;-69
2022/10/08 05:41:18;;;;;;;17.73;5.67;;;;;;;;;;5017877;28;20273;-68
2022/10/08 05:43:45;;;;;;;11.97;5.10;;;;;;;;;;5035506;28;20171;-68
2022/10/08 05:46:11;;;;;;;9.90;5.47;;;;;;;;;;5035512;28;20180;-68
2022/10/08 05:48:38;;;;;;;18.00;5.73;;;;;;;;;;5035339;28;20175;-69
2022/10/08 05:51:08;;;;;;;12.27;4.97;;;;;;;;;;5017601;28;20186;-69
2022/10/08 05:53:38;;;;;;;9.63;5.13;;;;;;;;;;5036068;28;20171;-68
2022/10/08 05:56:05;;;;;;;13.63;4.73;;;;;;;;;;5017555;28;20215;-69
2022/10/08 05:58:32;;;;;;;10.50;4.60;;;;;;;;;;5035150;28;20252;-68
2022/10/08 06:00:59;;;;;;;10.83;4.80;;;;;;;;;;5017331;28;20291;-69
2022/10/08 06:03:25;;;;;;;11.40;4.37;;;;;;;;;;5035054;28;20183;-68
2022/10/08 06:05:51;;;;;;;14.33;4.90;;;;;;;;;;5034913;28;20195;-68
2022/10/08 06:08:17;;;;;;;10.20;4.30;;;;;;;;;;5017699;28;20595;-68
2022/10/08 06:10:53;;;;;;;9.50;4.73;;;;;;;;;;5018389;28;20183;-68
2022/10/08 06:13:20;;;;;;;16.13;4.67;;;;;;;;;;5017894;28;20273;-68
2022/10/08 06:15:59;;;;;;;11.17;4.97;;;;;;;;;;5034862;28;20214;-68
2022/10/08 06:18:26;;;;;;;13.87;4.87;;;;;;;;;;5034847;28;20566;-68
2022/10/08 06:20:53;;;;;;;12.50;4.83;;;;;;;;;;5017694;28;20179;-69
2022/10/08 06:23:19;;;;;;;19.63;5.70;;;;;;;;;;5016585;28;20560;-68
2022/10/08 06:25:45;;;;;;;13.40;5.37;;;;;;;;;;5034744;28;20198;-69
2022/10/08 06:28:11;;;;;;;11.03;5.30;;;;;;;;;;5034765;28;20183;-68
2022/10/08 06:30:39;;;;;;;19.23;6.53;;;;;;;;;;5017066;28;20645;-68
2022/10/08 06:33:05;;;;;;;16.17;6.70;;;;;;;;;;5016756;28;20191;-68
2022/10/08 06:35:31;;;;;;;16.50;7.30;;;;;;;;;;5016613;28;20226;-68
2022/10/08 06:37:57;;;;;;;14.77;8.23;;;;;;;;;;5034442;28;20285;-68
2022/10/08 06:40:23;;;;;;;19.57;8.27;;;;;;;;;;5016733;28;20209;-68
2022/10/08 06:42:49;;;;;;;18.33;9.63;;;;;;;;;;5034318;28;20229;-68
2022/10/08 06:45:15;;;;;;;16.53;10.00;;;;;;;;;;5034080;28;20195;-69
2022/10/08 06:47:41;;;;;;;19.10;10.47;;;;;;;;;;5034149;28;20181;-68
2022/10/08 06:50:07;;;;;;;23.53;11.10;;;;;;;;;;5034209;28;20635;-68
2022/10/08 06:52:33;;;;;;;18.73;11.27;;;;;;;;;;5034184;28;20548;-69
2022/10/08 06:54:59;;;;;;;18.77;11.47;;;;;;;;;;5034408;28;20202;-68
2022/10/08 06:57:25;;;;;;;18.00;10.60;;;;;;;;;;5016636;28;20175;-68
2022/10/08 06:59:53;;;;;;;18.50;11.30;;;;;;;;;;5034466;28;20715;-68
2022/10/08 07:02:19;;;;;;;17.33;11.10;;;;;;;;;;5034806;28;20171;-68
2022/10/08 07:04:45;;;;;;;19.90;11.03;;;;;;;;;;5016218;28;20210;-68
2022/10/08 07:07:11;;;;;;;19.47;11.63;;;;;;;;;;5016226;28;20175;-68
2022/10/08 07:09:37;;;;;;;24.67;13.47;;;;;;;;;;5016314;28;20185;-68
2022/10/08 07:12:03;;;;;;;29.33;14.73;;;;;;;;;;5016249;28;20190;-68
2022/10/08 07:14:29;;;;;;;22.20;14.27;;;;;;;;;;5033822;28;20203;-68
2022/10/08 07:16:55;;;;;;;26.23;15.53;;;;;;;;;;5016569;28;20183;-68
2022/10/08 07:19:21;;;;;;;25.20;14.97;;;;;;;;;;5015857;28;20249;-68
2022/10/08 07:21:47;;;;;;;27.77;14.07;;;;;;;;;;5033549;28;20190;-68
2022/10/08 07:24:13;;;;;;;20.40;14.90;;;;;;;;;;5015655;28;20203;-68
2022/10/08 07:26:39;;;;;;;21.83;15.03;;;;;;;;;;5015815;28;20187;-68
2022/10/08 07:29:07;;;;;;;25.40;15.57;;;;;;;;;;5015865;28;20183;-68
2022/10/08 07:31:34;;;;;;;32.23;16.83;;;;;;;;;;5033506;28;20183;-68
2022/10/08 07:34:02;;;;;;;24.50;14.50;;;;;;;;;;5015415;28;20237;-68
2022/10/08 07:36:29;;;;;;;27.17;16.10;;;;;;;;;;5014776;28;20217;-68
2022/10/08 07:38:55;;;;;;;25.03;16.00;;;;;;;;;;5033599;28;20206;-67
2022/10/08 07:41:21;;;;;;;29.50;15.27;;;;;;;;;;5033275;28;20181;-68
2022/10/08 07:43:50;;;;;;;26.87;16.33;;;;;;;;;;5033436;28;20548;-68
2022/10/08 07:46:16;;;;;;;26.10;17.73;;;;;;;;;;5033273;28;20167;-68
2022/10/08 07:48:42;;;;;;;27.93;17.07;;;;;;;;;;5015492;28;20194;-68
2022/10/08 07:51:16;;;;;;;22.87;16.97;;;;;;;;;;5032954;28;20187;-68
2022/10/08 07:53:42;;;;;;;30.57;18.70;;;;;;;;;;5033330;28;20273;-68
2022/10/08 07:56:09;;;;;;;30.60;18.53;;;;;;;;;;5015655;28;20183;-67
2022/10/08 07:58:35;;;;;;;28.50;18.37;;;;;;;;;;5015598;28;20203;-67
2022/10/08 08:01:02;;;;;;;29.50;18.40;;;;;;;;;;5033580;28;20179;-67
2022/10/08 08:03:28;;;;;;;30.93;18.53;;;;;;;;;;5033566;28;20194;-68
2022/10/08 08:05:59;;;;;;;27.57;19.07;;;;;;;;;;5033182;28;20194;-67
2022/10/08 08:08:25;;;;;;;25.27;17.33;;;;;;;;;;5033493;28;20617;-68
2022/10/08 08:10:58;;;;;;;23.03;17.27;;;;;;;;;;5015259;28;20214;-68
2022/10/08 08:13:24;;;;;;;26.73;17.40;;;;;;;;;;5015254;28;20190;-68
2022/10/08 08:16:01;;;;;;;28.67;18.17;;;;;;;;;;5015200;28;20199;-68
2022/10/08 08:18:31;;;;;;;23.30;17.00;;;;;;;;;;5015964;28;20306;-68
2022/10/08 08:20:58;;;;;;;24.13;17.10;;;;;;;;;;5015274;28;20182;-68
2022/10/08 08:23:27;;;;;;;21.87;17.23;;;;;;;;;;5015152;28;20225;-68
2022/10/08 08:25:53;;;;;;;23.80;17.37;;;;;;;;;;5032766;28;20199;-68
2022/10/08 08:28:19;;;;;;;24.83;17.83;;;;;;;;;;5032897;28;20190;-68
2022/10/08 08:30:45;;;;;;;26.37;17.97;;;;;;;;;;5015048;28;20183;-68
2022/10/08 08:33:11;;;;;;;27.57;18.03;;;;;;;;;;5015130;28;20191;-67
2022/10/08 08:35:37;;;;;;;27.20;17.37;;;;;;;;;;5015198;28;20266;-68
2022/10/08 08:38:03;;;;;;;26.33;17.17;;;;;;;;;;5033058;28;20554;-67
2022/10/08 08:40:29;;;;;;;25.50;16.40;;;;;;;;;;5015028;28;20635;-68
2022/10/08 08:42:56;;;;;;;27.00;16.53;;;;;;;;;;5032756;28;20536;-68
2022/10/08 08:45:24;;;;;;;21.90;16.03;;;;;;;;;;5032571;28;20203;-68
2022/10/08 08:48:05;;;;;;;19.57;14.73;;;;;;;;;;5017358;28;20178;-68
2022/10/08 08:50:36;;;;;;;23.87;15.40;;;;;;;;;;5018575;28;20205;-68
2022/10/08 08:53:02;;;;;;;23.37;15.13;;;;;;;;;;5036350;28;20179;-68
2022/10/08 08:55:40;;;;;;;22.70;12.83;;;;;;;;;;5036019;28;20199;-68
2022/10/08 08:58:12;;;;;;;19.37;13.33;;;;;;;;;;5036610;28;20655;-68
2022/10/08 09:00:44;;;;;;;17.60;10.83;;;;;;;;;;5036176;28;20171;-68
2022/10/08 09:03:25;;;;;;;15.63;10.90;;;;;;;;;;5036060;28;20210;-68
2022/10/08 09:05:55;;;;;;;19.87;10.93;;;;;;;;;;5035928;28;20195;-68
2022/10/08 09:08:44;;;;;;;15.97;10.20;;;;;;;;;;5018232;28;20187;-68
2022/10/08 09:11:13;;;;;;;19.00;10.27;;;;;;;;;;5023600;28;20245;-68
2022/10/08 09:13:57;;;;;;;18.07;10.73;;;;;;;;;;5035962;28;20179;-68
2022/10/08 09:16:23;;;;;;;19.13;10.40;;;;;;;;;;5035787;28;20218;-68
2022/10/08 09:18:50;;;;;;;15.30;10.23;;;;;;;;;;5035730;28;20289;-68
2022/10/08 09:21:17;;;;;;;16.87;10.57;;;;;;;;;;5036004;28;20175;-68
2022/10/08 09:23:45;;;;;;;39.40;11.93;;;;;;;;;;5035576;28;20549;-68
2022/10/08 09:26:19;;;;;;;16.53;9.37;;;;;;;;;;5035647;28;20167;-68
2022/10/08 09:28:55;;;;;;;15.43;8.10;;;;;;;;;;5017851;28;20186;-68
2022/10/08 09:31:24;;;;;;;38.20;11.30;;;;;;;;;;5035677;28;20167;-67
2022/10/08 09:34:01;;;;;;;21.60;10.50;;;;;;;;;;5017608;28;20187;-68
2022/10/08 09:36:37;;;;;;;13.13;7.60;;;;;;;;;;5035748;28;20171;-68
2022/10/08 09:39:14;;;;;;;14.67;7.70;;;;;;;;;;5035634;28;20566;-68
2022/10/08 09:41:40;;;;;;;15.53;7.47;;;;;;;;;;5035913;28;20213;-68
2022/10/08 09:44:11;;;;;;;11.03;7.00;;;;;;;;;;5035550;28;20191;-67
2022/10/08 09:46:37;;;;;;;14.37;6.50;;;;;;;;;;5035553;28;20183;-68
2022/10/08 09:49:26;;;;;;;9.57;5.80;;;;;;;;;;5037703;28;20186;-67
2022/10/08 09:51:52;;;;;;;9.80;6.20;;;;;;;;;;5021692;28;20249;-68
2022/10/08 09:54:23;;;;;;;11.40;5.20;;;;;;;;;;5019760;28;20202;-68
2022/10/08 09:56:52;;;;;;;11.57;5.60;;;;;;;;;;5018926;28;20179;-69
2022/10/08 09:59:20;;;;;;;12.37;5.27;;;;;;;;;;5035116;28;20239;-68
2022/10/08 10:01:46;;;;;;;11.23;4.93;;;;;;;;;;5035290;28;20247;-68
2022/10/08 10:04:19;;;;;;;13.23;4.30;;;;;;;;;;5034901;28;20713;-68
2022/10/08 10:06:47;;;;;;;11.57;4.10;;;;;;;;;;5035309;28;20206;-68
2022/10/08 10:09:19;;;;;;;10.63;4.93;;;;;;;;;;5017200;28;20241;-68
2022/10/08 10:11:46;;;;;;;6.77;4.07;;;;;;;;;;5034865;28;20207;-67
2022/10/08 10:14:31;;;;;;;5.53;3.20;;;;;;;;;;5034906;28;20206;-70
2022/10/08 10:17:02;;;;;;;11.30;3.67;;;;;;;;;;5034671;28;20529;-70
2022/10/08 10:19:30;;;;;;;6.57;3.00;;;;;;;;;;5034853;28;20210;-70
2022/10/08 10:22:02;;;;;;;6.83;2.97;;;;;;;;;;5034682;28;20202;-69
2022/10/08 10:24:47;;;;;;;5.47;2.37;;;;;;;;;;5034462;28;20202;-70
2022/10/08 10:27:22;;;;;;;7.80;2.97;;;;;;;;;;5016787;28;20616;-70
2022/10/08 10:30:11;;;;;;;5.63;2.37;;;;;;;;;;5016748;28;20667;-70
2022/10/08 10:32:38;;;;;;;8.13;2.47;;;;;;;;;;5016538;28;20638;-69
2022/10/08 10:35:10;;;;;;;7.17;2.10;;;;;;;;;;5034187;28;20305;-69
2022/10/08 10:37:43;;;;;;;5.20;2.30;;;;;;;;;;5034504;28;20171;-70
2022/10/08 10:40:16;;;;;;;6.77;1.93;;;;;;;;;;5016536;28;20265;-70
2022/10/08 10:42:46;;;;;;;4.50;2.00;;;;;;;;;;5034102;28;20167;-69
2022/10/08 10:47:50;;;;;;;5.23;2.13;;;;;;;;;;5013041;28;20215;-64
2022/10/08 10:50:19;;;;;;;7.97;2.60;;;;;;;;;;5014512;28;20179;-65
2022/10/08 10:52:48;;;;;;;6.20;2.30;;;;;;;;;;5014321;28;20175;-66
2022/10/08 10:55:20;;;;;;;8.20;2.53;;;;;;;;;;5014307;28;20176;-65
2022/10/08 10:58:04;;;;;;;5.87;1.90;;;;;;;;;;5014537;28;20184;-64
2022/10/08 11:00:30;;;;;;;6.37;2.30;;;;;;;;;;5014378;28;20179;-65
2022/10/08 11:02:58;;;;;;;7.07;2.03;;;;;;;;;;5014105;28;20598;-65
2022/10/08 11:05:24;;;;;;;6.50;2.07;;;;;;;;;;5014231;28;20549;-65
2022/10/08 11:08:06;;;;;;;6.93;2.37;;;;;;;;;;4996412;28;20176;-65
2022/10/08 11:10:39;;;;;;;17.20;2.50;;;;;;;;;;5013960;28;20217;-65
2022/10/08 11:13:23;;;;;;;5.60;2.27;;;;;;;;;;5014246;28;20609;-68
2022/10/08 11:15:56;;;;;;;6.10;2.20;;;;;;;;;;5014106;28;20199;-65
2022/10/08 11:18:31;;;;;;;7.80;2.63;;;;;;;;;;5013875;28;20191;-67
2022/10/08 11:20:56;;;;;;;7.87;2.00;;;;;;;;;;5013772;28;20180;-66
2022/10/08 11:23:44;;;;;;;6.03;2.20;;;;;;;;;;4996183;28;20183;-67
2022/10/08 11:26:26;;;;;;;5.30;2.53;;;;;;;;;;4996115;28;20249;-65
2022/10/08 11:29:11;;;;;;;6.43;1.80;;;;;;;;;;5014200;28;20176;-67
2022/10/08 11:31:41;;;;;;;6.27;2.17;;;;;;;;;;5013714;28;20214;-67
2022/10/08 11:34:18;;;;;;;9.73;2.10;;;;;;;;;;4996231;28;20534;-65
2022/10/08 11:37:08;;;;;;;4.13;1.60;;;;;;;;;;5013622;28;20698;-67
2022/10/08 11:39:53;;;;;;;5.37;1.83;;;;;;;;;;5013942;28;20235;-67
2022/10/08 11:42:31;;;;;;;4.67;1.70;;;;;;;;;;5013672;28;20182;-64
2022/10/08 11:45:13;;;;;;;4.27;1.87;;;;;;;;;;5013877;28;20168;-65
2022/10/08 11:47:39;;;;;;;5.70;1.50;;;;;;;;;;5013477;28;20588;-66
2022/10/08 11:50:05;;;;;;;5.43;1.70;;;;;;;;;;5013655;28;20266;-65
2022/10/08 11:52:32;;;;;;;5.10;1.90;;;;;;;;;;5013497;28;20179;-65
2022/10/08 11:55:00;;;;;;;4.17;1.90;;;;;;;;;;5013499;28;20180;-65
2022/10/08 11:57:36;;;;;;;5.57;1.90;;;;;;;;;;5013557;28;20691;-64
2022/10/08 12:00:11;;;;;;;6.63;2.10;;;;;;;;;;5013517;28;20192;-66
2022/10/08 12:02:41;;;;;;;3.57;1.60;;;;;;;;;;5013928;28;20163;-66
2022/10/08 12:05:19;;;;;;;5.10;1.57;;;;;;;;;;5013424;28;20200;-66
2022/10/08 12:08:05;;;;;;;7.57;2.10;;;;;;;;;;4995773;28;20175;-66
2022/10/08 12:10:32;;;;;;;8.63;2.07;;;;;;;;;;5013327;28;20728;-66
2022/10/08 12:13:00;;;;;;;6.60;1.90;;;;;;;;;;5013630;28;20671;-65
2022/10/08 12:15:26;;;;;;;4.57;2.00;;;;;;;;;;5013398;28;20244;-73
2022/10/08 12:18:21;;;;;;;8.63;2.00;;;;;;;;;;5014819;28;20183;-67
2022/10/08 12:21:07;;;;;;;9.47;2.40;;;;;;;;;;5014126;28;20203;-67
2022/10/08 12:23:33;;;;;;;6.20;1.60;;;;;;;;;;5017442;28;20716;-67
2022/10/08 12:25:59;;;;;;;5.40;1.73;;;;;;;;;;5017201;28;20668;-64
2022/10/08 12:28:28;;;;;;;5.60;2.10;;;;;;;;;;5017324;28;20183;-65
2022/10/08 12:30:55;;;;;;;4.47;2.07;;;;;;;;;;5017486;28;20184;-65
2022/10/08 12:33:22;;;;;;;9.77;2.47;;;;;;;;;;5016972;28;20222;-67
2022/10/08 12:36:04;;;;;;;4.57;1.60;;;;;;;;;;5017191;28;20577;-66
2022/10/08 12:38:32;;;;;;;6.20;1.90;;;;;;;;;;4999224;28;20207;-67
2022/10/08 12:40:58;;;;;;;25.13;3.40;;;;;;;;;;4999307;28;20549;-65
2022/10/08 12:43:27;;;;;;;4.80;1.80;;;;;;;;;;5017721;28;20187;-65
2022/10/08 12:46:16;;;;;;;3.43;1.57;;;;;;;;;;5016745;28;20214;-65
2022/10/08 12:48:53;;;;;;;7.53;1.67;;;;;;;;;;5016755;28;20192;-68
2022/10/08 12:51:31;;;;;;;4.87;1.77;;;;;;;;;;4999352;28;20206;-65
2022/10/08 12:53:57;;;;;;;4.60;1.50;;;;;;;;;;5017130;28;20544;-66
2022/10/08 12:56:26;;;;;;;2.87;1.43;;;;;;;;;;4999630;28;20578;-66
2022/10/08 12:58:54;;;;;;;8.40;1.70;;;;;;;;;;5016693;28;20200;-67
2022/10/08 13:01:20;;;;;;;8.57;2.23;;;;;;;;;;5016666;28;20176;-65
2022/10/08 13:03:46;;;;;;;6.03;1.40;;;;;;;;;;4999226;28;20274;-66
2022/10/08 13:06:16;;;;;;;7.40;1.80;;;;;;;;;;5016797;28;20195;-66
2022/10/08 13:08:42;;;;;;;7.43;1.90;;;;;;;;;;4998863;28;20274;-66
2022/10/08 13:11:15;;;;;;;5.37;2.10;;;;;;;;;;4998736;28;20230;-66
2022/10/08 13:13:43;;;;;;;10.20;1.47;;;;;;;;;;5016302;28;20271;-66
2022/10/08 13:16:23;;;;;;;6.07;2.00;;;;;;;;;;5016057;28;20577;-65
2022/10/08 13:18:53;;;;;;;4.70;1.50;;;;;;;;;;4998385;28;20205;-66
2022/10/08 13:21:33;;;;;;;5.40;1.60;;;;;;;;;;4998427;28;20184;-66
2022/10/08 13:24:00;;;;;;;3.70;1.30;;;;;;;;;;4998391;28;20176;-67
2022/10/08 13:26:37;;;;;;;3.47;1.60;;;;;;;;;;4998328;28;20203;-67
2022/10/08 13:29:19;;;;;;;6.57;1.67;;;;;;;;;;5016080;28;20266;-66
2022/10/08 13:31:51;;;;;;;5.50;2.00;;;;;;;;;;5016166;28;20187;-66
2022/10/08 13:34:18;;;;;;;3.50;1.40;;;;;;;;;;5014588;28;20176;-67
2022/10/08 13:36:48;;;;;;;4.23;1.60;;;;;;;;;;4998194;28;20235;-67
2022/10/08 13:39:32;;;;;;;4.23;1.60;;;;;;;;;;5015988;28;20227;-66
2022/10/08 13:41:59;;;;;;;4.60;1.67;;;;;;;;;;5016012;28;20176;-66
2022/10/08 13:44:26;;;;;;;5.17;1.63;;;;;;;;;;5016363;28;20179;-67
2022/10/08 13:46:52;;;;;;;4.80;2.10;;;;;;;;;;4998051;28;20215;-66
2022/10/08 13:49:20;;;;;;;7.33;1.97;;;;;;;;;;5015564;28;20519;-66
2022/10/08 13:51:46;;;;;;;5.03;1.83;;;;;;;;;;5015528;28;20203;-66
2022/10/08 13:54:12;;;;;;;4.80;1.50;;;;;;;;;;5015757;28;20648;-67
2022/10/08 13:56:38;;;;;;;3.87;1.83;;;;;;;;;;4997914;28;20688;-64
2022/10/08 13:59:04;;;;;;;7.83;1.80;;;;;;;;;;5015326;28;20196;-66
2022/10/08 14:01:30;;;;;;;16.67;2.53;;;;;;;;;;4997989;28;20176;-64
2022/10/08 14:03:56;;;;;;;5.80;1.70;;;;;;;;;;4997854;28;20190;-66
2022/10/08 14:06:22;;;;;;;7.57;1.90;;;;;;;;;;5015215;28;20192;-66
2022/10/08 14:08:48;;;;;;;8.57;2.37;;;;;;;;;;5015289;28;20211;-65
2022/10/08 14:11:16;;;;;;;7.00;2.00;;;;;;;;;;5015633;28;20562;-65
2022/10/08 14:13:42;;;;;;;3.67;1.70;;;;;;;;;;5015317;28;20208;-64
2022/10/08 14:16:10;;;;;;;4.73;1.77;;;;;;;;;;4997752;28;20204;-66
2022/10/08 14:18:36;;;;;;;3.50;1.83;;;;;;;;;;5015076;28;20287;-67
2022/10/08 14:21:02;;;;;;;8.83;1.80;;;;;;;;;;5015272;28;20219;-67
2022/10/08 14:23:28;;;;;;;7.47;2.00;;;;;;;;;;4997320;28;20211;-67
2022/10/08 14:25:54;;;;;;;6.40;1.97;;;;;;;;;;5015002;28;20208;-67
2022/10/08 14:28:20;;;;;;;10.10;1.93;;;;;;;;;;5014858;28;20552;-67
2022/10/08 14:30:46;;;;;;;7.80;2.13;;;;;;;;;;4997318;28;20245;-67
2022/10/08 14:33:12;;;;;;;6.33;2.27;;;;;;;;;;4997596;28;20188;-67
2022/10/08 14:35:38;;;;;;;8.80;1.67;;;;;;;;;;5014768;28;20565;-66
2022/10/08 14:38:04;;;;;;;7.37;1.70;;;;;;;;;;4997032;28;20183;-67
2022/10/08 14:40:29;;;;;;;3.67;1.60;;;;;;;;;;4997180;28;20179;-66
2022/10/08 14:42:55;;;;;;;4.73;1.60;;;;;;;;;;5014567;28;20178;-66
2022/10/08 14:45:21;;;;;;;4.53;1.77;;;;;;;;;;4996658;28;20653;-68
2022/10/08 14:47:47;;;;;;;5.60;1.67;;;;;;;;;;4996865;28;20255;-66
2022/10/08 14:50:13;;;;;;;4.33;1.60;;;;;;;;;;5014547;28;20180;-67